Time;durP1;ratioP1;P1;durP2;ratioP2;P2;SDS_P1;SDS_P2;PMS_P1;PMS_P2;Temp;Humidity;BMP_temperature;BMP_pressure;BME280_temperature;BME280_humidity;BME280_pressure;Samples;Min_cycle;Max_cycle;Signal;HPM_P1;HPM_P2
2023/08/08 00:03:29;;;;;;;2.83;1.65;;;13.90;99.90;;;;;;7270058;32;20233;-55
2023/08/08 00:07:31;;;;;;;2.65;1.10;;;13.80;99.90;;;;;;7258031;32;20126;-56
2023/08/08 00:11:33;;;;;;;2.15;1.20;;;13.80;99.90;;;;;;7262568;32;20204;-55
2023/08/08 00:15:35;;;;;;;2.10;1.23;;;13.60;99.90;;;;;;7270776;32;20179;-55
2023/08/08 00:19:37;;;;;;;2.62;1.25;;;13.60;99.90;;;;;;7270952;32;20133;-55
2023/08/08 00:23:38;;;;;;;1.90;1.10;;;13.60;99.90;;;;;;7275983;32;20120;-55
2023/08/08 00:27:43;;;;;;;5.82;1.60;;;13.50;99.90;;;;;;7274690;32;20136;-55
2023/08/08 00:31:45;;;;;;;3.17;1.15;;;13.40;99.90;;;;;;7262507;32;20333;-55
2023/08/08 00:35:47;;;;;;;4.32;1.48;;;13.40;99.90;;;;;;7273283;32;20178;-55
2023/08/08 00:39:48;;;;;;;2.30;1.37;;;13.30;99.90;;;;;;7268844;32;20540;-55
2023/08/08 00:43:50;;;;;;;2.33;1.35;;;13.20;99.90;;;;;;7268348;32;20108;-56
2023/08/08 00:47:53;;;;;;;3.20;1.52;;;13.10;99.90;;;;;;7267852;32;20234;-57
2023/08/08 00:51:54;;;;;;;3.42;1.45;;;13.20;99.90;;;;;;7276481;32;20170;-55
2023/08/08 00:55:57;;;;;;;5.70;1.60;;;13.20;99.90;;;;;;7269996;32;20251;-56
2023/08/08 00:59:59;;;;;;;4.82;1.50;;;13.20;99.90;;;;;;7272285;32;20150;-55
2023/08/08 01:04:01;;;;;;;4.43;1.80;;;13.20;99.90;;;;;;7266351;32;20214;-56
2023/08/08 01:08:05;;;;;;;4.72;1.60;;;13.20;99.90;;;;;;7263204;32;20112;-55
2023/08/08 01:12:10;;;;;;;4.53;1.70;;;13.20;99.90;;;;;;7274835;32;20844;-54
2023/08/08 01:16:13;;;;;;;5.32;2.00;;;13.10;99.90;;;;;;7272500;32;20320;-55
2023/08/08 01:20:16;;;;;;;7.75;2.03;;;13.20;99.90;;;;;;7271500;32;20108;-55
2023/08/08 01:24:22;;;;;;;3.30;2.08;;;13.10;99.90;;;;;;7271797;32;20108;-55
2023/08/08 01:28:24;;;;;;;5.53;2.28;;;13.20;99.90;;;;;;7261971;32;20199;-55
2023/08/08 01:32:25;;;;;;;3.78;1.80;;;13.30;99.90;;;;;;7266481;32;20325;-55
2023/08/08 01:37:04;;;;;;;5.03;2.00;;;13.40;99.90;;;;;;7274005;32;20199;-55
2023/08/08 01:41:07;;;;;;;6.07;2.10;;;13.40;99.90;;;;;;7243832;32;20203;-56
2023/08/08 01:45:10;;;;;;;3.35;2.10;;;13.30;99.90;;;;;;7267557;32;20326;-55
2023/08/08 01:49:11;;;;;;;5.82;2.33;;;13.40;99.90;;;;;;7265417;32;20564;-55
2023/08/08 01:53:13;;;;;;;5.55;2.00;;;13.30;99.90;;;;;;7269833;32;20843;-55
2023/08/08 01:57:15;;;;;;;5.55;2.45;;;13.30;99.90;;;;;;7268919;32;20492;-55
2023/08/08 02:01:16;;;;;;;7.55;2.62;;;13.40;99.90;;;;;;7250098;32;22558;-55
2023/08/08 02:05:18;;;;;;;6.00;1.83;;;13.50;99.90;;;;;;7262884;32;20214;-56
2023/08/08 02:09:20;;;;;;;6.82;2.25;;;13.50;99.90;;;;;;7267395;32;20548;-54
2023/08/08 02:13:23;;;;;;;4.20;2.33;;;13.50;99.90;;;;;;7264802;32;20804;-55
2023/08/08 02:17:26;;;;;;;3.42;2.25;;;13.60;99.90;;;;;;7270754;32;20127;-55
2023/08/08 02:21:28;;;;;;;5.57;2.03;;;13.60;99.90;;;;;;7268732;32;21348;-55
2023/08/08 02:25:30;;;;;;;5.87;2.20;;;13.60;99.90;;;;;;7270421;32;20933;-55
2023/08/08 02:29:32;;;;;;;5.40;2.28;;;13.50;99.90;;;;;;7267856;32;20135;-56
2023/08/08 02:33:34;;;;;;;6.28;2.47;;;13.60;99.90;;;;;;7264577;32;20104;-55
2023/08/08 02:37:36;;;;;;;4.50;2.03;;;13.60;99.90;;;;;;7270750;32;20113;-55
2023/08/08 02:41:37;;;;;;;6.12;2.50;;;13.60;99.90;;;;;;7268755;32;20607;-55
2023/08/08 02:45:39;;;;;;;6.05;1.98;;;13.60;99.90;;;;;;7269556;32;20155;-55
2023/08/08 02:49:41;;;;;;;5.25;2.25;;;13.50;99.90;;;;;;7272945;32;20721;-56
2023/08/08 02:53:43;;;;;;;7.03;2.22;;;13.60;99.90;;;;;;7265013;32;20131;-55
2023/08/08 02:57:44;;;;;;;3.95;2.08;;;13.60;99.90;;;;;;7260815;32;20254;-55
2023/08/08 03:01:47;;;;;;;4.37;2.03;;;13.50;99.90;;;;;;7264472;32;20151;-54
2023/08/08 03:05:49;;;;;;;4.85;2.08;;;13.50;99.90;;;;;;7270576;32;20495;-55
2023/08/08 03:09:51;;;;;;;4.85;1.90;;;13.50;99.90;;;;;;7275606;32;20155;-55
2023/08/08 03:13:52;;;;;;;4.20;2.10;;;13.50;99.90;;;;;;7270171;32;20139;-55
2023/08/08 03:17:55;;;;;;;5.22;2.15;;;13.60;99.90;;;;;;7267139;32;20129;-55
2023/08/08 03:21:57;;;;;;;4.22;1.90;;;13.60;99.90;;;;;;7267053;32;20168;-55
2023/08/08 03:25:59;;;;;;;5.30;2.15;;;13.60;99.90;;;;;;7270106;32;20627;-55
2023/08/08 03:30:02;;;;;;;5.47;2.00;;;13.60;99.90;;;;;;7274350;32;20119;-55
2023/08/08 03:34:04;;;;;;;6.05;2.28;;;13.60;99.90;;;;;;7266403;32;20121;-55
2023/08/08 03:38:06;;;;;;;6.72;1.90;;;13.60;99.90;;;;;;7270587;32;20192;-55
2023/08/08 03:42:08;;;;;;;4.32;2.62;;;13.60;99.90;;;;;;7265706;32;20203;-55
2023/08/08 03:46:11;;;;;;;6.50;1.73;;;13.60;99.90;;;;;;7265853;32;20555;-55
2023/08/08 03:50:13;;;;;;;4.85;2.05;;;13.60;99.90;;;;;;7271929;32;20108;-55
2023/08/08 03:54:15;;;;;;;3.78;1.80;;;13.60;99.90;;;;;;7274105;32;20144;-55
2023/08/08 03:58:17;;;;;;;3.90;2.03;;;13.70;99.90;;;;;;7265145;32;20113;-55
2023/08/08 04:02:19;;;;;;;6.12;2.30;;;13.70;99.90;;;;;;7263024;32;20209;-55
2023/08/08 04:06:21;;;;;;;10.52;2.35;;;13.70;99.90;;;;;;7275249;32;20131;-56
2023/08/08 04:10:23;;;;;;;8.43;2.00;;;13.70;99.90;;;;;;7269084;32;20108;-56
2023/08/08 04:14:24;;;;;;;10.27;2.30;;;13.70;99.90;;;;;;7271788;32;20123;-56
2023/08/08 04:18:26;;;;;;;4.78;2.22;;;13.60;99.90;;;;;;7266254;32;20392;-55
2023/08/08 04:22:28;;;;;;;7.68;2.53;;;13.60;99.90;;;;;;7273656;32;20221;-55
2023/08/08 04:26:29;;;;;;;6.00;2.30;;;13.70;99.90;;;;;;7269345;32;20242;-55
2023/08/08 04:30:31;;;;;;;11.18;3.25;;;13.70;99.90;;;;;;7266230;32;20413;-56
2023/08/08 04:34:33;;;;;;;10.93;3.42;;;13.70;99.90;;;;;;7268822;32;20108;-55
2023/08/08 04:38:35;;;;;;;10.25;3.67;;;13.70;99.90;;;;;;7263457;32;20162;-57
2023/08/08 04:42:37;;;;;;;11.85;3.20;;;13.60;99.90;;;;;;7272765;32;20759;-55
2023/08/08 04:46:38;;;;;;;11.52;4.37;;;13.60;99.90;;;;;;7266283;32;20486;-57
2023/08/08 04:50:41;;;;;;;10.07;3.97;;;13.60;99.90;;;;;;7272208;32;20803;-57
2023/08/08 04:54:44;;;;;;;10.82;3.97;;;13.70;99.90;;;;;;7276189;32;20401;-57
2023/08/08 04:58:45;;;;;;;11.38;3.85;;;13.70;99.90;;;;;;7268686;32;20515;-56
2023/08/08 05:02:47;;;;;;;13.80;4.50;;;13.70;99.90;;;;;;7264720;32;20219;-58
2023/08/08 05:06:49;;;;;;;7.43;4.32;;;13.70;99.90;;;;;;7259772;32;20206;-57
2023/08/08 05:10:51;;;;;;;14.15;4.62;;;13.70;99.90;;;;;;7272456;32;20128;-56
2023/08/08 05:14:52;;;;;;;10.40;4.32;;;13.80;99.90;;;;;;7266172;32;20259;-57
2023/08/08 05:18:54;;;;;;;8.07;3.95;;;13.80;99.90;;;;;;7274110;32;20616;-57
2023/08/08 05:22:56;;;;;;;12.63;4.60;;;13.80;99.90;;;;;;7277312;32;20127;-57
2023/08/08 05:26:58;;;;;;;11.48;4.18;;;13.80;99.90;;;;;;7266773;32;20112;-56
2023/08/08 05:30:59;;;;;;;12.73;3.90;;;13.90;99.90;;;;;;7275779;32;20338;-56
2023/08/08 05:35:04;;;;;;;11.95;4.78;;;13.90;99.90;;;;;;7273372;32;20119;-58
2023/08/08 05:39:06;;;;;;;11.65;4.12;;;13.90;99.90;;;;;;7271132;32;20166;-57
2023/08/08 05:43:08;;;;;;;11.48;3.92;;;14.00;99.90;;;;;;7268858;32;20214;-56
2023/08/08 05:47:11;;;;;;;12.65;4.62;;;14.10;99.90;;;;;;7270366;32;20258;-57
2023/08/08 05:51:12;;;;;;;13.82;4.78;;;14.10;99.90;;;;;;7265954;32;20183;-56
2023/08/08 05:55:14;;;;;;;15.60;5.05;;;14.10;99.90;;;;;;7269339;32;20139;-56
2023/08/08 05:59:16;;;;;;;14.23;5.12;;;14.10;99.90;;;;;;7270221;32;20108;-57
2023/08/08 06:03:18;;;;;;;10.45;5.68;;;14.00;99.90;;;;;;7270980;32;20161;-56
2023/08/08 06:07:19;;;;;;;15.98;5.80;;;14.10;99.90;;;;;;7268904;32;20203;-56
2023/08/08 06:11:21;;;;;;;11.00;5.45;;;14.10;99.90;;;;;;7267960;32;20135;-56
2023/08/08 06:15:23;;;;;;;14.80;6.68;;;14.10;99.90;;;;;;7268340;32;20209;-56
2023/08/08 06:19:25;;;;;;;8.30;5.57;;;14.10;99.90;;;;;;7273444;32;20234;-55
2023/08/08 06:23:27;;;;;;;16.92;6.45;;;14.10;99.90;;;;;;7271035;32;20127;-55
2023/08/08 06:27:28;;;;;;;16.30;7.22;;;14.10;99.90;;;;;;7270036;32;20135;-56
2023/08/08 06:31:30;;;;;;;13.85;7.25;;;14.10;99.90;;;;;;7265549;32;20231;-56
2023/08/08 06:35:32;;;;;;;16.73;6.53;;;14.10;99.90;;;;;;7266859;32;20580;-57
2023/08/08 06:39:34;;;;;;;11.23;6.25;;;14.20;99.90;;;;;;7265432;32;20112;-57
2023/08/08 06:43:36;;;;;;;21.65;6.53;;;14.10;99.90;;;;;;7271320;32;20104;-56
2023/08/08 06:47:38;;;;;;;12.43;6.15;;;14.20;99.90;;;;;;7279643;32;20751;-58
2023/08/08 06:51:40;;;;;;;12.15;6.53;;;14.30;99.90;;;;;;7269763;32;20206;-57
2023/08/08 06:55:41;;;;;;;11.48;5.43;;;14.30;99.90;;;;;;7268697;32;20234;-56
2023/08/08 06:59:43;;;;;;;10.13;5.50;;;14.40;99.90;;;;;;7276200;32;20590;-57
2023/08/08 07:03:46;;;;;;;12.50;5.15;;;14.50;99.90;;;;;;7270594;32;20601;-56
2023/08/08 07:07:50;;;;;;;14.00;6.35;;;14.60;99.90;;;;;;7267202;32;20139;-57
2023/08/08 07:11:52;;;;;;;12.48;5.43;;;14.80;99.90;;;;;;7279721;32;20158;-56
2023/08/08 07:15:54;;;;;;;12.10;6.03;;;14.80;99.90;;;;;;7270124;32;20143;-55
2023/08/08 07:19:56;;;;;;;9.95;5.15;;;14.90;99.90;;;;;;7269680;32;20638;-55
2023/08/08 07:23:58;;;;;;;11.77;4.85;;;15.10;99.90;;;;;;7274749;32;20112;-56
2023/08/08 07:27:59;;;;;;;11.12;4.90;;;15.30;99.90;;;;;;7276658;32;20230;-55
2023/08/08 07:32:03;;;;;;;13.07;5.12;;;15.50;99.90;;;;;;7273276;32;20171;-55
2023/08/08 07:36:05;;;;;;;10.07;4.40;;;15.60;99.90;;;;;;7268572;32;20141;-55
2023/08/08 07:40:20;;;;;;;10.00;4.37;;;15.70;99.90;;;;;;7269856;32;20506;-55
2023/08/08 07:44:21;;;;;;;10.85;4.28;;;15.70;99.90;;;;;;7271866;32;20208;-56
2023/08/08 07:48:23;;;;;;;9.38;4.45;;;15.80;99.90;;;;;;7274268;32;20248;-55
2023/08/08 07:52:25;;;;;;;9.77;4.05;;;15.90;99.90;;;;;;7271431;32;20135;-55
2023/08/08 07:56:27;;;;;;;8.85;4.40;;;16.00;99.90;;;;;;7274502;32;20207;-55
2023/08/08 08:00:28;;;;;;;9.95;3.45;;;16.10;99.90;;;;;;7271578;32;20111;-55
2023/08/08 08:04:30;;;;;;;9.45;3.60;;;16.20;99.90;;;;;;7269198;32;20222;-54
2023/08/08 08:08:32;;;;;;;8.52;3.50;;;16.20;99.90;;;;;;7272412;32;20203;-55
2023/08/08 08:12:34;;;;;;;11.05;3.35;;;16.30;99.90;;;;;;7273699;32;20105;-54
2023/08/08 08:16:36;;;;;;;8.48;3.60;;;16.20;99.90;;;;;;7270036;32;20132;-55
2023/08/08 08:20:39;;;;;;;12.37;3.20;;;16.10;99.90;;;;;;7275112;32;20199;-55
2023/08/08 08:24:40;;;;;;;8.90;3.10;;;16.30;99.90;;;;;;7272053;32;20199;-56
2023/08/08 08:28:42;;;;;;;10.52;2.83;;;16.40;99.90;;;;;;7271667;32;20523;-55
2023/08/08 08:32:44;;;;;;;7.18;2.67;;;16.60;99.90;;;;;;7269189;32;20139;-55
2023/08/08 08:36:46;;;;;;;7.15;2.83;;;16.80;99.90;;;;;;7268639;32;20111;-56
2023/08/08 08:40:48;;;;;;;8.52;2.53;;;17.00;99.90;;;;;;7271421;32;20206;-55
2023/08/08 08:44:52;;;;;;;7.40;2.62;;;17.40;99.90;;;;;;7267687;32;20215;-55
2023/08/08 08:48:56;;;;;;;9.35;3.05;;;18.20;99.90;;;;;;7264848;32;20130;-57
2023/08/08 08:52:59;;;;;;;8.77;2.42;;;18.60;99.90;;;;;;7270610;32;20112;-56
2023/08/08 08:57:01;;;;;;;7.90;2.45;;;18.50;99.90;;;;;;7278673;32;20124;-56
2023/08/08 09:01:03;;;;;;;6.80;2.58;;;18.60;99.90;;;;;;7278642;32;20450;-56
2023/08/08 09:05:06;;;;;;;6.97;2.30;;;18.60;99.90;;;;;;7278104;32;20108;-56
2023/08/08 09:09:08;;;;;;;7.12;2.10;;;18.30;99.90;;;;;;7264165;32;20108;-57
2023/08/08 09:13:17;;;;;;;6.40;2.35;;;18.10;99.90;;;;;;7274266;32;20112;-57
2023/08/08 09:17:19;;;;;;;9.50;2.40;;;17.90;99.90;;;;;;7265005;32;20150;-56
2023/08/08 09:21:24;;;;;;;11.75;2.90;;;17.50;99.90;;;;;;7271162;32;20769;-56
2023/08/08 09:25:26;;;;;;;9.93;3.03;;;17.30;99.90;;;;;;7271814;32;20130;-56
2023/08/08 09:29:28;;;;;;;12.48;3.33;;;17.40;99.90;;;;;;7273639;32;20170;-56
2023/08/08 09:33:30;;;;;;;8.73;2.80;;;17.40;99.90;;;;;;7264877;32;20138;-56
2023/08/08 09:37:32;;;;;;;8.20;2.70;;;17.90;99.90;;;;;;7268298;32;20131;-56
2023/08/08 09:41:34;;;;;;;9.30;2.70;;;18.30;99.90;;;;;;7266749;32;20442;-56
2023/08/08 09:45:37;;;;;;;6.50;2.15;;;18.60;99.90;;;;;;7271307;32;20158;-56
2023/08/08 09:49:39;;;;;;;6.82;2.67;;;18.70;99.90;;;;;;7272930;32;20128;-56
2023/08/08 09:53:42;;;;;;;8.73;2.00;;;19.10;99.90;;;;;;7282970;32;20218;-56
2023/08/08 09:57:45;;;;;;;6.93;2.40;;;19.10;99.90;;;;;;7272018;32;20401;-55
2023/08/08 10:01:47;;;;;;;8.13;2.00;;;19.10;99.90;;;;;;7266731;32;20742;-55
2023/08/08 10:05:49;;;;;;;8.60;2.08;;;18.70;99.90;;;;;;7275248;32;20153;-56
2023/08/08 10:09:52;;;;;;;7.75;2.03;;;18.50;99.90;;;;;;7265452;32;20214;-56
2023/08/08 10:13:54;;;;;;;4.78;2.47;;;18.10;99.90;;;;;;7269036;32;20494;-57
2023/08/08 10:17:57;;;;;;;5.05;2.37;;;17.70;99.90;;;;;;7266098;32;20139;-55
2023/08/08 10:22:06;;;;;;;6.25;2.03;;;17.50;99.90;;;;;;7267315;32;20120;-56
2023/08/08 10:26:19;;;;;;;5.40;1.80;;;17.50;99.90;;;;;;7260885;32;20158;-56
2023/08/08 10:30:21;;;;;;;5.90;2.10;;;17.30;99.90;;;;;;7261875;32;20214;-57
2023/08/08 10:34:37;;;;;;;5.75;2.58;;;17.30;99.90;;;;;;7266610;32;20112;-55
2023/08/08 10:38:50;;;;;;;6.00;2.00;;;17.30;99.90;;;;;;7266838;32;20116;-57
2023/08/08 10:42:52;;;;;;;5.47;1.80;;;17.30;99.90;;;;;;7261915;32;20219;-56
2023/08/08 10:46:54;;;;;;;5.90;1.62;;;17.20;99.90;;;;;;7268464;32;20112;-56
2023/08/08 10:51:00;;;;;;;5.75;1.98;;;17.10;99.90;;;;;;7274818;32;20108;-56
2023/08/08 10:55:03;;;;;;;6.47;1.95;;;17.20;99.90;;;;;;7263889;32;20214;-56
2023/08/08 10:59:19;;;;;;;4.53;1.90;;;17.30;99.90;;;;;;7271762;32;20131;-56
2023/08/08 11:03:23;;;;;;;6.95;2.45;;;17.20;99.90;;;;;;7268235;32;20647;-56
2023/08/08 11:07:28;;;;;;;6.12;2.47;;;17.20;99.90;;;;;;7272248;32;20124;-57
2023/08/08 11:11:36;;;;;;;11.57;2.80;;;17.20;99.90;;;;;;7269228;32;20172;-56
2023/08/08 11:15:38;;;;;;;8.15;2.70;;;17.20;99.90;;;;;;7269809;32;20109;-56
2023/08/08 11:19:41;;;;;;;10.55;2.40;;;17.30;99.90;;;;;;7268640;32;20165;-56
2023/08/08 11:23:46;;;;;;;6.00;2.40;;;17.10;99.90;;;;;;7273175;32;20138;-56
2023/08/08 11:27:52;;;;;;;7.35;2.37;;;17.30;99.90;;;;;;7273521;32;20835;-56
2023/08/08 11:31:54;;;;;;;6.40;2.67;;;17.60;99.90;;;;;;7270773;32;20550;-56
2023/08/08 11:35:56;;;;;;;7.15;2.30;;;17.60;99.90;;;;;;7275681;32;20211;-56
2023/08/08 11:39:58;;;;;;;6.97;2.28;;;17.80;99.90;;;;;;7270595;32;20457;-56
2023/08/08 11:44:01;;;;;;;7.37;2.25;;;17.80;99.90;;;;;;7268286;32;20124;-57
2023/08/08 11:48:04;;;;;;;10.35;2.42;;;18.00;99.90;;;;;;7272426;32;20135;-57
2023/08/08 11:52:07;;;;;;;5.57;2.10;;;17.90;99.90;;;;;;7275832;32;20209;-56
2023/08/08 11:56:09;;;;;;;5.32;1.98;;;17.80;99.90;;;;;;7269836;32;20104;-56
2023/08/08 12:00:14;;;;;;;5.93;1.77;;;17.50;99.90;;;;;;7272052;32;20230;-58
2023/08/08 12:04:20;;;;;;;6.60;2.62;;;17.50;99.90;;;;;;7270360;32;21918;-55
2023/08/08 12:08:23;;;;;;;6.03;2.30;;;17.50;99.90;;;;;;7267385;32;20194;-56
2023/08/08 12:12:27;;;;;;;7.95;2.75;;;17.30;99.90;;;;;;7262471;32;20226;-55
2023/08/08 12:16:32;;;;;;;6.47;3.15;;;17.00;99.90;;;;;;7271679;32;20547;-55
2023/08/08 12:20:35;;;;;;;12.85;3.30;;;16.80;99.90;;;;;;7264834;32;20260;-55
2023/08/08 12:24:37;;;;;;;5.87;2.80;;;16.60;99.90;;;;;;7269256;32;20514;-56
2023/08/08 12:28:39;;;;;;;8.73;2.58;;;16.70;99.90;;;;;;7271340;32;20195;-55
2023/08/08 12:32:41;;;;;;;7.20;2.45;;;16.80;99.90;;;;;;7243625;32;20238;-56
2023/08/08 12:36:43;;;;;;;7.32;2.22;;;17.00;99.90;;;;;;7270006;32;20455;-55
2023/08/08 12:40:45;;;;;;;6.87;2.05;;;17.30;99.90;;;;;;7258074;32;20543;-55
2023/08/08 12:44:46;;;;;;;5.47;2.08;;;17.90;99.90;;;;;;7268912;32;20174;-56
2023/08/08 12:48:48;;;;;;;5.62;2.10;;;18.10;99.90;;;;;;7271869;32;20855;-56
2023/08/08 12:52:50;;;;;;;5.55;1.98;;;18.60;99.90;;;;;;7266181;32;20115;-56
2023/08/08 12:56:52;;;;;;;4.55;2.00;;;18.50;99.90;;;;;;7269234;32;20275;-56
2023/08/08 13:00:54;;;;;;;5.45;1.90;;;18.30;99.90;;;;;;7274379;32;20203;-55
2023/08/08 13:04:55;;;;;;;5.03;2.22;;;18.50;99.90;;;;;;7266522;32;20265;-56
2023/08/08 13:08:57;;;;;;;4.53;2.03;;;18.60;99.90;;;;;;7262711;32;20574;-56
2023/08/08 13:12:59;;;;;;;3.92;1.90;;;18.60;99.90;;;;;;7261907;32;20505;-57
2023/08/08 13:17:01;;;;;;;7.55;1.87;;;18.40;99.90;;;;;;7264444;32;20202;-57
2023/08/08 13:21:03;;;;;;;7.32;1.90;;;18.50;99.90;;;;;;7272385;32;20175;-55
2023/08/08 13:25:07;;;;;;;8.32;2.00;;;19.00;99.90;;;;;;7269126;32;20135;-56
2023/08/08 13:29:12;;;;;;;6.05;2.00;;;19.30;99.90;;;;;;7271886;32;20131;-56
2023/08/08 13:33:13;;;;;;;4.07;1.62;;;19.40;99.90;;;;;;7269995;32;20211;-56
2023/08/08 13:37:15;;;;;;;4.37;1.95;;;19.60;99.90;;;;;;7265204;32;20222;-55
2023/08/08 13:41:17;;;;;;;7.47;2.12;;;19.80;99.90;;;;;;7268877;32;20134;-56
2023/08/08 13:45:20;;;;;;;4.65;1.60;;;20.10;99.90;;;;;;7267147;32;20176;-56
2023/08/08 13:49:26;;;;;;;3.45;1.42;;;19.60;99.90;;;;;;7271011;32;20275;-56
2023/08/08 13:53:28;;;;;;;3.85;1.95;;;19.30;99.90;;;;;;7269286;32;20700;-56
2023/08/08 13:57:30;;;;;;;6.95;2.15;;;18.80;99.90;;;;;;7269913;32;20112;-55
2023/08/08 14:01:31;;;;;;;4.03;1.83;;;18.50;99.90;;;;;;7268196;32;20105;-55
2023/08/08 14:05:33;;;;;;;7.15;2.20;;;18.30;99.90;;;;;;7271611;32;20123;-55
2023/08/08 14:09:35;;;;;;;7.57;1.83;;;18.70;99.90;;;;;;7270410;32;20853;-55
2023/08/08 14:13:38;;;;;;;6.07;1.80;;;19.20;99.90;;;;;;7271170;32;20191;-55
2023/08/08 14:17:40;;;;;;;9.60;2.35;;;19.10;99.90;;;;;;7264903;32;20522;-56
2023/08/08 14:21:41;;;;;;;8.63;2.50;;;18.80;99.90;;;;;;7273185;32;20225;-56
2023/08/08 14:25:43;;;;;;;6.12;2.10;;;18.60;99.90;;;;;;7270617;32;20180;-59
2023/08/08 14:29:45;;;;;;;6.53;2.25;;;18.80;99.90;;;;;;7270563;32;20107;-60
2023/08/08 14:33:47;;;;;;;4.55;2.12;;;18.80;99.90;;;;;;7270359;32;20116;-60
2023/08/08 14:37:49;;;;;;;5.15;1.95;;;18.80;99.90;;;;;;7265215;32;20271;-60
2023/08/08 14:41:50;;;;;;;3.42;1.80;;;18.80;99.90;;;;;;7267362;32;20127;-60
2023/08/08 14:45:52;;;;;;;6.18;2.10;;;18.80;99.90;;;;;;7269809;32;20248;-62
2023/08/08 14:49:54;;;;;;;6.90;2.20;;;18.80;99.90;;;;;;7259834;32;20243;-55
2023/08/08 14:53:56;;;;;;;5.40;1.62;;;18.90;99.90;;;;;;7261914;32;20101;-56
2023/08/08 14:57:57;;;;;;;3.55;1.30;;;19.00;99.90;;;;;;7265289;32;20189;-56
2023/08/08 15:01:59;;;;;;;2.65;1.02;;;19.20;99.90;;;;;;7261640;32;20116;-55
2023/08/08 15:06:01;;;;;;;3.55;1.15;;;19.90;99.90;;;;;;7269097;32;20117;-55
2023/08/08 15:10:03;;;;;;;5.28;1.10;;;19.80;99.90;;;;;;7272956;32;20197;-55
2023/08/08 15:14:05;;;;;;;2.25;0.90;;;19.70;99.90;;;;;;7258920;32;20108;-55
2023/08/08 15:18:07;;;;;;;4.10;1.10;;;20.10;99.90;;;;;;7266426;32;20530;-55
2023/08/08 15:22:08;;;;;;;3.80;1.15;;;20.00;99.90;;;;;;7269729;32;20112;-56
2023/08/08 15:26:10;;;;;;;3.20;0.90;;;19.80;99.90;;;;;;7270841;32;20656;-55
2023/08/08 15:30:12;;;;;;;1.62;0.70;;;19.60;99.90;;;;;;7265118;32;20252;-55
2023/08/08 15:34:14;;;;;;;2.95;0.80;;;19.80;99.90;;;;;;7275953;32;20612;-57
2023/08/08 15:38:15;;;;;;;2.22;0.80;;;19.80;99.90;;;;;;7271527;32;20192;-57
2023/08/08 15:42:17;;;;;;;6.22;0.85;;;19.80;99.90;;;;;;7268747;32;20120;-56
2023/08/08 15:46:19;;;;;;;13.57;2.20;;;19.80;99.90;;;;;;7267426;32;20135;-56
2023/08/08 15:50:21;;;;;;;3.90;1.30;;;19.80;99.90;;;;;;7271768;32;20233;-56
2023/08/08 15:54:23;;;;;;;3.20;1.17;;;19.80;99.90;;;;;;7271263;32;20234;-56
2023/08/08 15:58:26;;;;;;;5.97;1.90;;;19.60;99.90;;;;;;7268799;32;20967;-56
2023/08/08 16:02:27;;;;;;;2.83;1.00;;;19.60;99.90;;;;;;7267936;32;20104;-55
2023/08/08 16:06:29;;;;;;;4.80;0.90;;;19.60;99.90;;;;;;7273521;32;20138;-56
2023/08/08 16:10:31;;;;;;;2.83;1.40;;;19.30;99.90;;;;;;7270411;32;20218;-56
2023/08/08 16:14:33;;;;;;;2.97;1.23;;;19.20;99.90;;;;;;7272517;32;20271;-56
2023/08/08 16:18:34;;;;;;;4.57;1.20;;;19.00;99.90;;;;;;7265116;32;20116;-56
2023/08/08 16:22:36;;;;;;;5.10;1.17;;;18.80;99.90;;;;;;7273402;32;20153;-56
2023/08/08 16:26:38;;;;;;;5.53;0.98;;;18.80;99.90;;;;;;7275168;32;20299;-58
2023/08/08 16:30:39;;;;;;;3.33;1.30;;;18.80;99.90;;;;;;7266321;32;20134;-57
2023/08/08 16:34:41;;;;;;;3.62;1.17;;;18.80;99.90;;;;;;7273100;32;20116;-57
2023/08/08 16:38:43;;;;;;;5.53;0.90;;;18.90;99.90;;;;;;7269361;32;20289;-56
2023/08/08 16:42:45;;;;;;;4.47;1.10;;;18.90;99.90;;;;;;7271183;32;20197;-56
2023/08/08 16:46:46;;;;;;;4.55;1.20;;;19.00;99.90;;;;;;7268979;32;20137;-55
2023/08/08 16:50:49;;;;;;;4.37;1.30;;;19.00;99.90;;;;;;7270480;32;20187;-56
2023/08/08 16:54:51;;;;;;;3.42;1.10;;;18.90;99.90;;;;;;7274747;32;20131;-56
2023/08/08 16:58:55;;;;;;;2.08;1.20;;;18.80;99.90;;;;;;7269925;32;20210;-56
2023/08/08 17:02:57;;;;;;;4.00;1.27;;;18.70;99.90;;;;;;7275972;32;20160;-56
2023/08/08 17:06:59;;;;;;;5.30;1.27;;;18.50;99.90;;;;;;7268451;32;20425;-56
2023/08/08 17:11:01;;;;;;;4.45;1.50;;;18.40;99.90;;;;;;7272799;32;20522;-56
2023/08/08 17:15:03;;;;;;;2.95;1.10;;;18.30;99.90;;;;;;7265345;32;20656;-55
2023/08/08 17:19:06;;;;;;;2.78;1.40;;;18.20;99.90;;;;;;7266606;32;20203;-56
2023/08/08 17:23:08;;;;;;;2.62;1.70;;;18.10;99.90;;;;;;7268344;32;20570;-56
2023/08/08 17:27:10;;;;;;;6.00;2.33;;;17.60;99.90;;;;;;7268818;32;20167;-55
2023/08/08 17:31:12;;;;;;;4.45;2.10;;;16.90;99.90;;;;;;7269979;32;20198;-57
2023/08/08 17:35:14;;;;;;;2.80;2.42;;;16.50;99.90;;;;;;7270173;32;20644;-56
2023/08/08 17:39:16;;;;;;;4.60;2.70;;;16.30;99.90;;;;;;7268604;32;20121;-56
2023/08/08 17:43:17;;;;;;;4.93;2.70;;;16.10;99.90;;;;;;7268625;32;20116;-57
2023/08/08 17:47:19;;;;;;;4.40;2.45;;;16.00;99.90;;;;;;7266754;32;20132;-56
2023/08/08 17:51:21;;;;;;;5.47;2.72;;;16.00;99.90;;;;;;7269063;32;20868;-56
2023/08/08 17:55:23;;;;;;;4.50;2.65;;;16.00;99.90;;;;;;7268658;32;20199;-56
2023/08/08 17:59:25;;;;;;;5.62;2.47;;;16.10;99.90;;;;;;7262695;32;20120;-56
2023/08/08 18:03:31;;;;;;;3.75;2.40;;;16.00;99.90;;;;;;7267744;32;20128;-55
2023/08/08 18:07:33;;;;;;;6.15;2.95;;;15.90;99.90;;;;;;7270892;32;20310;-55
2023/08/08 18:11:38;;;;;;;5.07;3.15;;;15.80;99.90;;;;;;7271297;32;20397;-56
2023/08/08 18:15:40;;;;;;;2.90;2.70;;;15.90;99.90;;;;;;7265634;32;20471;-58
2023/08/08 18:19:41;;;;;;;4.97;3.20;;;15.80;99.90;;;;;;7268567;32;20108;-56
2023/08/08 18:23:43;;;;;;;9.38;3.58;;;15.80;99.90;;;;;;7268926;32;20883;-57
2023/08/08 18:27:45;;;;;;;3.58;2.65;;;15.70;99.90;;;;;;7267844;32;20109;-56
2023/08/08 18:31:47;;;;;;;4.10;3.30;;;15.60;99.90;;;;;;7267998;32;20161;-56
2023/08/08 18:35:48;;;;;;;5.78;3.00;;;15.50;99.90;;;;;;7267342;32;20584;-57
2023/08/08 18:39:50;;;;;;;4.72;3.17;;;15.40;99.90;;;;;;7267555;32;20128;-56
2023/08/08 18:43:52;;;;;;;4.37;3.37;;;15.40;99.90;;;;;;7277932;32;20208;-57
2023/08/08 18:47:54;;;;;;;4.95;3.67;;;15.50;99.90;;;;;;7270637;32;20588;-56
2023/08/08 18:51:55;;;;;;;5.07;3.20;;;15.50;99.90;;;;;;7272876;32;20140;-56
2023/08/08 18:55:57;;;;;;;6.30;3.22;;;15.50;99.90;;;;;;7273491;32;20355;-56
2023/08/08 18:59:59;;;;;;;5.03;3.00;;;15.40;99.90;;;;;;7271493;32;20165;-55
2023/08/08 19:04:01;;;;;;;4.07;2.95;;;15.40;99.90;;;;;;7276742;32;20637;-57
2023/08/08 19:08:03;;;;;;;5.47;3.22;;;15.40;99.90;;;;;;7276677;32;20104;-55
2023/08/08 19:12:05;;;;;;;4.47;3.42;;;15.30;99.90;;;;;;7270187;32;20870;-55
2023/08/08 19:16:07;;;;;;;5.18;3.05;;;15.30;99.90;;;;;;7272170;32;20165;-56
2023/08/08 19:20:09;;;;;;;4.20;3.30;;;15.20;99.90;;;;;;7267451;32;20646;-55
2023/08/08 19:24:11;;;;;;;4.87;3.35;;;15.10;99.90;;;;;;7268476;32;22122;-56
2023/08/08 19:28:12;;;;;;;4.30;3.22;;;15.00;99.90;;;;;;7272877;32;20215;-57
2023/08/08 19:32:14;;;;;;;4.68;3.45;;;15.00;99.90;;;;;;7277544;32;20840;-56
2023/08/08 19:36:16;;;;;;;6.12;3.55;;;14.90;99.90;;;;;;7275409;32;20240;-56
2023/08/08 19:40:18;;;;;;;6.37;4.10;;;14.90;99.90;;;;;;7266907;32;20428;-55
2023/08/08 19:44:20;;;;;;;6.75;3.85;;;14.80;99.90;;;;;;7265648;32;20721;-56
2023/08/08 19:48:22;;;;;;;6.47;3.67;;;14.90;99.90;;;;;;7270035;32;20219;-56
2023/08/08 19:52:24;;;;;;;5.90;4.32;;;14.90;99.90;;;;;;7277422;32;20191;-56
2023/08/08 19:56:26;;;;;;;5.28;4.00;;;14.90;99.90;;;;;;7274015;32;20108;-57
2023/08/08 20:00:28;;;;;;;6.20;3.78;;;15.00;99.90;;;;;;7267762;32;20132;-57
2023/08/08 20:04:30;;;;;;;7.12;4.45;;;15.00;99.90;;;;;;7267344;32;20892;-55
2023/08/08 20:08:32;;;;;;;5.57;4.50;;;15.00;99.90;;;;;;7269796;32;20104;-56
2023/08/08 20:12:34;;;;;;;7.25;5.47;;;14.90;99.90;;;;;;7267577;32;20237;-55
2023/08/08 20:16:36;;;;;;;5.15;4.65;;;14.80;99.90;;;;;;7271389;32;20236;-55
2023/08/08 20:20:38;;;;;;;7.50;6.03;;;14.70;99.90;;;;;;7273520;32;20565;-56
2023/08/08 20:24:40;;;;;;;6.78;4.90;;;14.60;99.90;;;;;;7266642;32;20215;-54
2023/08/08 20:28:42;;;;;;;6.28;5.53;;;14.60;99.90;;;;;;7269605;32;20182;-55
2023/08/08 20:32:44;;;;;;;6.40;4.70;;;14.60;99.90;;;;;;7271322;32;20111;-54
2023/08/08 20:36:46;;;;;;;5.35;4.70;;;14.60;99.90;;;;;;7272022;32;20112;-55
2023/08/08 20:40:50;;;;;;;6.60;5.15;;;14.60;99.90;;;;;;7268798;32;20209;-55
2023/08/08 20:44:52;;;;;;;7.47;5.25;;;14.50;99.90;;;;;;7266874;32;20117;-55
2023/08/08 20:48:55;;;;;;;7.68;5.50;;;14.60;99.90;;;;;;7271744;32;20354;-54
2023/08/08 20:52:58;;;;;;;5.60;5.03;;;14.60;99.90;;;;;;7263403;32;20463;-54
2023/08/08 20:56:59;;;;;;;7.05;4.85;;;14.50;99.90;;;;;;7272385;32;20170;-54
2023/08/08 21:01:02;;;;;;;5.93;4.45;;;14.60;99.90;;;;;;7270211;32;20112;-56